首页
METAR-TAF:

METAR-TAF

机场 :

卡托维兹, 波兰

纬度: 50-28-27N, 经度: 019-04-48E, 海拔: 284米

当前天气观测

该预报发布于14分钟前的07:30 UTC
风速5节,风向,在北转西北东北之间变化
温度 21°C
湿度 64%
气压 1015 hPa
能见度10公里或以上
1500米以下无云,无积雨云

METAR: EPKT 150730Z 01005KT 340V040 CAVOK 21/14 Q1015

时间: 09:44 (07:44 UTC)

预报

该预报发布于2小时和14分钟前的05:30 UTC
预报有效从15日的 06点(UTC)到 16日的 06点(UTC)
风速7节,风向
能见度10公里或以上
1500米以下无云,无积雨云

TAF: EPKT 150530Z 1506/1606 08007KT CAVOK

超过4000个机场的气象观测和天气预报(METAR&TAF报告)。

可查询的气象台以黄色和红色小点在地图上表示。

将鼠标移到小点上方,可查看气象台名称。

然后点击查看天气观测和预报。

如需切换地图:点击带黑十字的绿色按钮放大地图;点击带横线的绿色按钮缩小地图;或者点击绿色箭头查看邻近地区的地图。


METAR-TAF: